createdAt,value
2019-03-18T00:02:13.298Z,6.30
2019-03-18T00:04:39.345Z,6.30
2019-03-18T00:07:05.401Z,6.30
2019-03-18T00:09:34.235Z,6.20
2019-03-18T00:12:00.347Z,6.20
2019-03-18T00:14:26.478Z,6.20
2019-03-18T00:16:52.529Z,6.20
2019-03-18T00:19:18.606Z,6.20
2019-03-18T00:21:47.368Z,6.10
2019-03-18T00:24:13.433Z,6.00
2019-03-18T00:26:39.478Z,6.00
2019-03-18T00:29:05.505Z,5.90
2019-03-18T00:31:31.542Z,5.90
2019-03-18T00:33:57.595Z,5.90
2019-03-18T00:36:35.925Z,5.90
2019-03-18T00:39:04.668Z,6.00
2019-03-18T00:41:30.727Z,6.00
2019-03-18T00:43:56.778Z,5.90
2019-03-18T00:46:22.894Z,6.00
2019-03-18T00:48:49.019Z,6.00
2019-03-18T00:51:15.135Z,6.00
2019-03-18T00:53:41.223Z,6.00
2019-03-18T00:56:07.292Z,5.90
2019-03-18T00:58:33.340Z,5.90
2019-03-18T01:00:59.391Z,5.90
2019-03-18T01:03:25.543Z,5.80
2019-03-18T01:05:51.630Z,5.70
2019-03-18T01:08:17.703Z,5.70
2019-03-18T01:10:53.028Z,5.80
2019-03-18T01:13:19.202Z,5.80
2019-03-18T01:15:51.614Z,5.90
2019-03-18T01:18:17.793Z,5.80
2019-03-18T01:20:43.861Z,5.70
2019-03-18T01:23:22.072Z,5.80
2019-03-18T01:25:50.816Z,5.80
2019-03-18T01:28:16.928Z,5.80
2019-03-18T01:30:43.024Z,5.80
2019-03-18T01:33:09.156Z,5.70
2019-03-18T01:35:35.192Z,5.80
2019-03-18T01:38:01.253Z,5.70
2019-03-18T01:40:33.436Z,5.70
2019-03-18T01:43:02.180Z,5.70
2019-03-18T01:45:40.163Z,5.80
2019-03-18T01:47:56.181Z,5.80
2019-03-18T01:50:22.233Z,5.80
2019-03-18T01:52:48.284Z,5.80
2019-03-18T01:55:23.424Z,5.80
2019-03-18T01:57:49.504Z,5.80
2019-03-18T02:00:15.662Z,5.90
2019-03-18T02:02:41.810Z,5.80
2019-03-18T02:05:08.526Z,5.90
2019-03-18T02:07:34.572Z,5.80
2019-03-18T02:10:00.738Z,5.80
2019-03-18T02:12:26.868Z,5.90
2019-03-18T02:14:52.981Z,5.80
2019-03-18T02:17:19.015Z,5.80
2019-03-18T02:19:45.095Z,5.80
2019-03-18T02:22:11.130Z,5.80
2019-03-18T02:24:37.195Z,5.80
2019-03-18T02:27:03.255Z,5.90
2019-03-18T02:29:29.315Z,5.90
2019-03-18T02:31:55.360Z,5.90
2019-03-18T02:34:21.399Z,5.90
2019-03-18T02:36:47.437Z,5.90
2019-03-18T02:39:25.687Z,5.90
2019-03-18T02:41:51.749Z,5.90
2019-03-18T02:44:18.005Z,5.80
2019-03-18T02:46:46.654Z,5.80
2019-03-18T02:49:12.749Z,5.70
2019-03-18T02:51:47.882Z,5.80
2019-03-18T02:54:13.923Z,5.70
2019-03-18T02:56:39.983Z,5.80
2019-03-18T02:59:06.033Z,5.80
2019-03-18T03:01:32.096Z,5.90
2019-03-18T03:03:58.165Z,5.90
2019-03-18T03:06:24.189Z,5.90
2019-03-18T03:08:50.235Z,6.00
2019-03-18T03:11:16.381Z,6.00
2019-03-18T03:13:45.102Z,6.00
2019-03-18T03:16:25.671Z,6.00
2019-03-18T03:18:39.129Z,5.90
2019-03-18T03:21:07.868Z,5.90
2019-03-18T03:23:33.907Z,5.80
2019-03-18T03:25:59.953Z,5.70
2019-03-18T03:28:26.085Z,5.80
2019-03-18T03:30:52.209Z,5.70
2019-03-18T03:33:20.999Z,5.70
2019-03-18T03:35:47.253Z,5.70
2019-03-18T03:38:16.450Z,5.70
2019-03-18T03:40:42.665Z,5.60
2019-03-18T03:43:08.820Z,5.70
2019-03-18T03:45:34.889Z,5.70
2019-03-18T03:48:01.031Z,5.60
2019-03-18T03:50:27.201Z,5.60
2019-03-18T03:52:53.283Z,5.50
2019-03-18T03:55:19.448Z,5.50
2019-03-18T03:57:45.590Z,5.50
2019-03-18T04:00:12.602Z,5.50
2019-03-18T04:02:38.643Z,5.40
2019-03-18T04:05:04.992Z,5.40
2019-03-18T04:07:31.136Z,5.40
2019-03-18T04:09:59.808Z,5.30
2019-03-18T04:12:28.528Z,5.30
2019-03-18T04:14:54.593Z,5.40
2019-03-18T04:17:20.648Z,5.40
2019-03-18T04:19:46.792Z,5.40
2019-03-18T04:22:22.089Z,5.40
2019-03-18T04:24:48.183Z,5.40
2019-03-18T04:27:14.351Z,5.40
2019-03-18T04:29:40.411Z,5.40
2019-03-18T04:32:06.479Z,5.40
2019-03-18T04:34:32.517Z,5.30
2019-03-18T04:37:07.891Z,5.30
2019-03-18T04:39:36.681Z,5.30
2019-03-18T04:42:02.804Z,5.30
2019-03-18T04:44:28.887Z,5.30
2019-03-18T04:46:57.664Z,5.30
2019-03-18T04:49:24.806Z,5.30
2019-03-18T04:51:53.699Z,5.30
2019-03-18T04:54:22.483Z,5.30
2019-03-18T04:56:48.577Z,5.20
2019-03-18T04:59:14.635Z,5.20
2019-03-18T05:01:43.643Z,5.20
2019-03-18T05:04:09.739Z,5.10
2019-03-18T05:06:35.935Z,5.10
2019-03-18T05:09:03.713Z,5.10
2019-03-18T05:11:29.775Z,5.10
2019-03-18T05:13:55.942Z,5.10
2019-03-18T05:16:22.166Z,5.10
2019-03-18T05:18:48.358Z,5.10
2019-03-18T05:21:14.433Z,5.20
2019-03-18T05:23:40.545Z,5.20
2019-03-18T05:26:09.598Z,5.20
2019-03-18T05:28:35.707Z,5.20
2019-03-18T05:31:01.755Z,5.20
2019-03-18T05:33:30.548Z,5.20
2019-03-18T05:36:11.828Z,5.20
2019-03-18T05:38:37.904Z,5.20
2019-03-18T05:41:06.882Z,5.30
2019-03-18T05:43:32.968Z,5.30
2019-03-18T05:45:59.024Z,5.30
2019-03-18T05:48:25.200Z,5.20
2019-03-18T05:51:06.439Z,5.20
2019-03-18T05:53:32.515Z,5.30
2019-03-18T05:56:04.887Z,5.30
2019-03-18T05:58:33.670Z,5.30
2019-03-18T06:00:59.795Z,5.30
2019-03-18T06:03:26.047Z,5.30
2019-03-18T06:05:55.244Z,5.20
2019-03-18T06:08:21.327Z,5.20
2019-03-18T06:10:50.091Z,5.30
2019-03-18T06:13:18.952Z,5.30
2019-03-18T06:15:45.083Z,5.30
2019-03-18T06:18:13.813Z,5.50
2019-03-18T06:20:42.844Z,5.60
2019-03-18T06:23:08.895Z,5.60
2019-03-18T06:25:34.941Z,5.60
2019-03-18T06:28:04.092Z,5.60
2019-03-18T06:30:39.421Z,5.60
2019-03-18T06:33:05.472Z,5.60
2019-03-18T06:35:43.620Z,5.60
2019-03-18T06:38:09.837Z,5.50
2019-03-18T06:40:47.995Z,5.50
2019-03-18T06:43:14.129Z,5.40
2019-03-18T06:45:46.304Z,5.40
2019-03-18T06:48:15.121Z,5.40
2019-03-18T06:50:41.222Z,5.50
2019-03-18T06:53:07.439Z,5.50
2019-03-18T06:55:33.643Z,5.50
2019-03-18T06:57:59.820Z,5.60
2019-03-18T07:00:25.933Z,5.60
2019-03-18T07:02:52.027Z,5.60
2019-03-18T07:05:20.878Z,5.60
2019-03-18T07:07:49.722Z,5.70
2019-03-18T07:10:34.335Z,5.70
2019-03-18T07:13:03.115Z,5.80
2019-03-18T07:15:31.823Z,5.80
2019-03-18T07:17:57.876Z,5.90
2019-03-18T07:20:23.912Z,6.00
2019-03-18T07:22:52.839Z,6.10
2019-03-18T07:25:19.030Z,6.10
2019-03-18T07:27:45.210Z,6.10
2019-03-18T07:30:13.762Z,6.00
2019-03-18T07:32:52.069Z,6.00
2019-03-18T07:35:20.826Z,5.90
2019-03-18T07:37:49.939Z,5.80
2019-03-18T07:40:16.053Z,5.80
2019-03-18T07:42:42.357Z,5.90
2019-03-18T07:45:09.431Z,5.90
2019-03-18T07:47:35.559Z,6.00
2019-03-18T07:50:06.474Z,6.00
2019-03-18T07:52:35.291Z,6.10
2019-03-18T07:55:16.489Z,6.10
2019-03-18T07:57:43.285Z,6.10
2019-03-18T08:00:10.544Z,6.10
2019-03-18T08:02:52.020Z,6.10
2019-03-18T08:05:20.776Z,6.10
2019-03-18T08:07:46.954Z,6.20
2019-03-18T08:10:13.199Z,6.30
2019-03-18T08:12:39.406Z,6.30
2019-03-18T08:15:20.953Z,6.30
2019-03-18T08:17:49.719Z,6.40
2019-03-18T08:20:15.835Z,6.40
2019-03-18T08:22:41.908Z,6.40
2019-03-18T08:25:10.677Z,6.50
2019-03-18T08:27:39.517Z,6.60
2019-03-18T08:30:20.373Z,6.70
2019-03-18T08:32:49.300Z,6.80
2019-03-18T08:35:15.533Z,6.90
2019-03-18T08:37:41.824Z,6.90
2019-03-18T08:40:09.414Z,6.90
2019-03-18T08:42:54.619Z,7.00
2019-03-18T08:45:23.799Z,7.10
2019-03-18T08:48:08.660Z,7.20
2019-03-18T08:50:35.158Z,7.20
2019-03-18T08:53:19.812Z,7.30
2019-03-18T08:55:46.161Z,7.40
2019-03-18T08:58:15.070Z,7.50
2019-03-18T09:00:41.487Z,7.70
2019-03-18T09:03:08.027Z,7.70
2019-03-18T09:05:34.470Z,7.70
2019-03-18T09:08:00.910Z,7.90
2019-03-18T09:10:45.874Z,8.10
2019-03-18T09:13:15.013Z,8.20
2019-03-18T09:15:41.293Z,8.10
2019-03-18T09:18:07.687Z,8.20
2019-03-18T09:20:33.934Z,8.10
2019-03-18T09:23:01.475Z,8.10
2019-03-18T09:25:28.155Z,8.20
2019-03-18T09:27:54.549Z,8.20
2019-03-18T09:30:23.504Z,8.30
2019-03-18T09:32:53.099Z,8.30
2019-03-18T09:35:19.511Z,8.40
2019-03-18T09:37:45.959Z,8.40
2019-03-18T09:40:16.104Z,8.30
2019-03-18T09:42:42.603Z,8.10
2019-03-18T09:45:11.559Z,7.80
2019-03-18T09:47:37.894Z,7.60
2019-03-18T09:50:05.971Z,7.60
2019-03-18T09:52:48.624Z,7.70
2019-03-18T09:55:33.949Z,7.80
2019-03-18T09:58:00.470Z,7.90
2019-03-18T10:00:30.500Z,8.00
2019-03-18T10:02:56.943Z,8.20
2019-03-18T10:05:43.907Z,8.40
2019-03-18T10:08:25.097Z,8.70
2019-03-18T10:10:50.982Z,9.60
2019-03-18T10:13:20.375Z,11.70
2019-03-18T10:15:49.529Z,13.90
2019-03-18T10:18:18.477Z,15.70
2019-03-18T10:20:44.776Z,17.30
2019-03-18T10:23:11.065Z,18.80
2019-03-18T10:25:39.849Z,19.80
2019-03-18T10:28:06.421Z,20.80
2019-03-18T10:30:33.976Z,21.10
2019-03-18T10:33:00.595Z,21.00
2019-03-18T10:35:26.902Z,20.90
2019-03-18T10:37:55.834Z,20.60
2019-03-18T10:40:40.909Z,19.70
2019-03-18T10:43:07.088Z,17.70
2019-03-18T10:45:33.481Z,17.10
2019-03-18T10:48:02.805Z,16.20
2019-03-18T10:50:29.032Z,14.70
2019-03-18T10:52:58.538Z,14.20
2019-03-18T10:55:27.676Z,15.20
2019-03-18T10:58:12.600Z,14.70
2019-03-18T11:00:40.208Z,13.40
2019-03-18T11:03:06.772Z,12.50
2019-03-18T11:05:35.893Z,12.40
2019-03-18T11:08:20.587Z,13.00
2019-03-18T11:10:46.812Z,15.60
2019-03-18T11:13:13.344Z,17.40
2019-03-18T11:15:48.979Z,18.50
2019-03-18T11:18:15.290Z,19.50
2019-03-18T11:20:42.160Z,19.80
2019-03-18T11:23:26.726Z,19.90
2019-03-18T11:25:53.355Z,19.40
2019-03-18T11:28:22.525Z,17.80
2019-03-18T11:31:01.180Z,15.60
2019-03-18T11:33:28.605Z,13.50
2019-03-18T11:35:58.425Z,12.00
2019-03-18T11:38:25.172Z,11.00
2019-03-18T11:40:54.672Z,10.40
2019-03-18T11:43:40.000Z,10.20
2019-03-18T11:46:09.025Z,10.30
2019-03-18T11:48:35.212Z,10.60
2019-03-18T11:51:01.517Z,11.20
2019-03-18T11:53:46.669Z,11.70
2019-03-18T11:56:12.974Z,12.10
2019-03-18T11:58:39.346Z,12.20
2019-03-18T12:01:05.830Z,12.20
2019-03-18T12:03:32.207Z,12.10
2019-03-18T12:05:58.478Z,12.10
2019-03-18T12:08:24.710Z,12.00
2019-03-18T12:10:51.094Z,11.80
2019-03-18T12:13:35.831Z,11.60
2019-03-18T12:16:02.161Z,11.60
2019-03-18T12:18:28.336Z,11.60
2019-03-18T12:20:54.516Z,11.70
2019-03-18T12:23:20.723Z,11.80
2019-03-18T12:25:46.910Z,11.80
2019-03-18T12:28:13.082Z,11.80
2019-03-18T12:30:39.274Z,11.60
2019-03-18T12:33:05.549Z,11.20
2019-03-18T12:35:31.829Z,10.70
2019-03-18T12:38:16.671Z,10.30
2019-03-18T12:40:42.942Z,9.90
2019-03-18T12:43:09.181Z,9.70
2019-03-18T12:45:54.494Z,9.80
2019-03-18T12:48:24.020Z,9.90
2019-03-18T12:50:56.265Z,10.10
2019-03-18T12:53:18.784Z,10.30
2019-03-18T12:55:44.976Z,10.40
2019-03-18T12:58:11.155Z,10.60
2019-03-18T13:00:37.551Z,10.60
2019-03-18T13:03:22.758Z,10.50
2019-03-18T13:05:48.960Z,10.60
2019-03-18T13:08:18.172Z,10.70
2019-03-18T13:10:47.094Z,10.80
2019-03-18T13:13:16.091Z,11.10
2019-03-18T13:15:42.333Z,11.30
2019-03-18T13:18:11.128Z,11.40
2019-03-18T13:20:37.641Z,11.10
2019-03-18T13:23:22.698Z,10.80
2019-03-18T13:25:51.944Z,10.60
2019-03-18T13:28:21.140Z,10.80
2019-03-18T13:30:50.299Z,11.00
2019-03-18T13:33:34.835Z,11.40
2019-03-18T13:36:01.132Z,11.90
2019-03-18T13:38:27.524Z,12.20
2019-03-18T13:40:53.964Z,12.30
2019-03-18T13:43:22.917Z,12.00
2019-03-18T13:45:55.548Z,11.70
2019-03-18T13:48:20.167Z,11.40
2019-03-18T13:50:46.426Z,11.20
2019-03-18T13:53:12.886Z,11.00
2019-03-18T13:55:58.023Z,11.00
2019-03-18T13:58:26.961Z,11.00
2019-03-18T14:00:53.213Z,11.00
2019-03-18T14:03:22.286Z,11.10
2019-03-18T14:05:48.686Z,12.00
2019-03-18T14:08:17.491Z,12.70
2019-03-18T14:10:46.459Z,13.00
2019-03-18T14:13:12.658Z,12.80
2019-03-18T14:15:39.030Z,12.40
2019-03-18T14:18:20.673Z,12.00
2019-03-18T14:20:46.878Z,12.00
2019-03-18T14:23:13.087Z,11.80
2019-03-18T14:25:39.474Z,11.60
2019-03-18T14:28:08.385Z,11.20
2019-03-18T14:30:34.613Z,10.90
2019-03-18T14:33:00.811Z,10.80
2019-03-18T14:35:45.734Z,10.60
2019-03-18T14:38:12.118Z,10.50
2019-03-18T14:40:38.348Z,10.60
2019-03-18T14:43:04.536Z,10.80
2019-03-18T14:45:30.753Z,11.10
2019-03-18T14:47:56.949Z,11.30
2019-03-18T14:50:23.344Z,11.30
2019-03-18T14:53:01.900Z,11.20
2019-03-18T14:55:28.151Z,11.00
2019-03-18T14:57:54.424Z,10.90
2019-03-18T15:00:28.141Z,10.90
2019-03-18T15:02:56.927Z,10.80
2019-03-18T15:05:23.573Z,10.80
2019-03-18T15:07:49.823Z,10.90
2019-03-18T15:10:19.879Z,10.90
2019-03-18T15:12:46.084Z,10.80
2019-03-18T15:15:16.428Z,10.70
2019-03-18T15:17:42.730Z,10.50
2019-03-18T15:20:13.548Z,10.30
2019-03-18T15:22:42.552Z,10.10
2019-03-18T15:25:34.292Z,9.90
2019-03-18T15:28:00.528Z,9.70
2019-03-18T15:30:29.832Z,9.50
2019-03-18T15:32:58.982Z,9.50
2019-03-18T15:35:28.797Z,9.50
2019-03-18T15:37:55.010Z,9.50
2019-03-18T15:40:23.967Z,9.40
2019-03-18T15:42:56.351Z,9.40
2019-03-18T15:45:23.031Z,9.20
2019-03-18T15:47:51.936Z,9.20
2019-03-18T15:50:25.103Z,9.10
2019-03-18T15:52:51.577Z,9.10
2019-03-18T15:55:23.617Z,9.20
2019-03-18T15:58:07.255Z,9.30
2019-03-18T16:00:33.737Z,9.40
2019-03-18T16:03:18.621Z,9.50
2019-03-18T16:05:45.079Z,9.50
2019-03-18T16:08:30.022Z,9.60
2019-03-18T16:11:11.611Z,9.60
2019-03-18T16:13:37.883Z,9.60
2019-03-18T16:16:04.089Z,9.60
2019-03-18T16:18:30.315Z,9.60
2019-03-18T16:20:56.657Z,9.70
2019-03-18T16:23:25.638Z,9.60
2019-03-18T16:25:51.880Z,9.60
2019-03-18T16:28:18.102Z,9.50
2019-03-18T16:30:44.365Z,9.50
2019-03-18T16:33:13.635Z,9.40
2019-03-18T16:35:42.508Z,9.30
2019-03-18T16:38:08.790Z,9.20
2019-03-18T16:40:35.098Z,9.10
2019-03-18T16:43:01.488Z,9.10
2019-03-18T16:45:30.461Z,9.10
2019-03-18T16:47:59.365Z,9.10
2019-03-18T16:50:27.060Z,9.20
2019-03-18T16:52:53.367Z,9.10
2019-03-18T16:55:22.576Z,9.10
2019-03-18T16:58:07.577Z,9.00
2019-03-18T17:00:33.995Z,8.90
2019-03-18T17:03:00.302Z,8.90
2019-03-18T17:05:45.428Z,8.90
2019-03-18T17:08:14.875Z,8.90
2019-03-18T17:10:59.742Z,8.90
2019-03-18T17:13:28.916Z,8.90
2019-03-18T17:15:55.233Z,8.90
2019-03-18T17:18:40.313Z,8.90
2019-03-18T17:21:06.833Z,8.80
2019-03-18T17:23:45.549Z,8.70
2019-03-18T17:26:11.950Z,8.60
2019-03-18T17:28:38.500Z,8.50
2019-03-18T17:31:04.877Z,8.50
2019-03-18T17:33:31.250Z,8.50
2019-03-18T17:35:57.713Z,8.50
2019-03-18T17:38:26.849Z,8.40
2019-03-18T17:41:11.857Z,8.40
2019-03-18T17:43:38.198Z,8.40
2019-03-18T17:46:04.706Z,8.50
2019-03-18T17:48:49.591Z,8.40
2019-03-18T17:51:16.011Z,8.40
2019-03-18T17:53:57.653Z,8.50
2019-03-18T17:56:30.277Z,8.50
2019-03-18T17:59:10.525Z,8.40
2019-03-18T18:01:36.738Z,8.30
2019-03-18T18:04:03.210Z,8.30
2019-03-18T18:06:29.471Z,8.30
2019-03-18T18:09:14.422Z,8.20
2019-03-18T18:11:43.062Z,8.20
2019-03-18T18:14:08.730Z,8.10
2019-03-18T18:16:34.937Z,8.00
2019-03-18T18:19:01.201Z,8.00
2019-03-18T18:21:27.423Z,8.00
2019-03-18T18:23:53.654Z,7.90
2019-03-18T18:26:19.933Z,7.90
2019-03-18T18:28:46.275Z,7.80
2019-03-18T18:31:15.235Z,7.70
2019-03-18T18:33:41.560Z,7.70
2019-03-18T18:36:26.763Z,7.80
2019-03-18T18:38:52.999Z,7.80
2019-03-18T18:41:19.250Z,7.80
2019-03-18T18:43:45.472Z,7.80
2019-03-18T18:46:11.754Z,7.80
2019-03-18T18:48:40.683Z,7.90
2019-03-18T18:51:22.205Z,7.90
2019-03-18T18:53:48.527Z,7.90
2019-03-18T18:56:14.871Z,7.80
2019-03-18T18:58:41.153Z,7.80
2019-03-18T19:01:13.156Z,7.90
2019-03-18T19:03:41.053Z,7.90
2019-03-18T19:06:07.274Z,7.90
2019-03-18T19:08:33.519Z,7.80
2019-03-18T19:10:59.746Z,7.80
2019-03-18T19:13:25.955Z,7.70
2019-03-18T19:15:52.138Z,7.70
2019-03-18T19:18:18.380Z,7.70
2019-03-18T19:20:47.378Z,7.70
2019-03-18T19:23:13.592Z,7.70
2019-03-18T19:25:39.906Z,7.70
2019-03-18T19:28:15.638Z,7.70
2019-03-18T19:30:44.517Z,7.60
2019-03-18T19:33:10.789Z,7.50
2019-03-18T19:35:36.990Z,7.40
2019-03-18T19:38:05.947Z,7.30
2019-03-18T19:40:32.270Z,7.30
2019-03-18T19:42:58.530Z,7.20
2019-03-18T19:45:24.743Z,7.20
2019-03-18T19:47:52.998Z,7.20
2019-03-18T19:50:20.833Z,7.20
2019-03-18T19:52:56.154Z,7.10
2019-03-18T19:55:22.563Z,7.10
2019-03-18T19:57:55.032Z,7.10
2019-03-18T20:00:24.063Z,7.10
2019-03-18T20:02:50.461Z,7.10
2019-03-18T20:05:18.881Z,7.00
2019-03-18T20:07:44.774Z,7.00
2019-03-18T20:10:14.600Z,6.90
2019-03-18T20:12:41.057Z,6.90
2019-03-18T20:15:15.713Z,6.80
2019-03-18T20:17:57.363Z,6.80
2019-03-18T20:20:23.623Z,6.70
2019-03-18T20:22:52.530Z,6.60
2019-03-18T20:25:19.312Z,6.60
2019-03-18T20:27:45.640Z,6.60
2019-03-18T20:30:16.248Z,6.60
2019-03-18T20:32:42.645Z,6.60
2019-03-18T20:35:27.782Z,6.60
2019-03-18T20:38:00.268Z,6.50
2019-03-18T20:40:26.497Z,6.50
2019-03-18T20:42:52.852Z,6.50
2019-03-18T20:45:22.987Z,6.50
2019-03-18T20:47:49.316Z,6.50
2019-03-18T20:50:16.731Z,6.50
2019-03-18T20:52:42.966Z,6.50
2019-03-18T20:55:09.883Z,6.50
2019-03-18T20:57:36.416Z,6.50
2019-03-18T21:00:16.638Z,6.40
2019-03-18T21:02:42.859Z,6.40
2019-03-18T21:05:11.779Z,6.40
2019-03-18T21:07:38.015Z,6.40
2019-03-18T21:13:36.654Z,6.30
2019-03-18T21:16:05.539Z,6.30
2019-03-18T21:18:31.822Z,6.30
2019-03-18T21:20:58.139Z,6.30
2019-03-18T21:23:24.423Z,6.30
2019-03-18T21:25:50.629Z,6.30
2019-03-18T21:28:16.842Z,6.30
2019-03-18T21:30:43.152Z,6.20
2019-03-18T21:33:12.315Z,6.20
2019-03-18T21:35:41.468Z,6.20
2019-03-18T21:38:07.703Z,6.20
2019-03-18T21:40:36.764Z,6.10
2019-03-18T21:43:03.127Z,6.10
2019-03-18T21:45:29.343Z,6.10
2019-03-18T21:47:55.596Z,6.00
2019-03-18T21:50:21.877Z,6.00
2019-03-18T21:52:48.304Z,6.00
2019-03-18T21:55:15.500Z,5.90
2019-03-18T21:57:41.970Z,5.90
2019-03-18T22:00:21.357Z,5.90
2019-03-18T22:03:06.114Z,5.90
2019-03-18T22:05:32.356Z,5.80
2019-03-18T22:07:58.763Z,5.70
2019-03-18T22:10:25.017Z,5.70
2019-03-18T22:12:51.181Z,5.70
2019-03-18T22:15:17.507Z,5.60
2019-03-18T22:17:43.854Z,5.50
2019-03-18T22:20:14.117Z,5.50
2019-03-18T22:22:42.905Z,5.50
2019-03-18T22:25:12.554Z,5.40
2019-03-18T22:27:38.798Z,5.40
2019-03-18T22:30:09.127Z,5.40
2019-03-18T22:32:35.343Z,5.40
2019-03-18T22:35:01.818Z,5.30
2019-03-18T22:37:46.746Z,5.30
2019-03-18T22:40:14.143Z,5.20
2019-03-18T22:42:40.386Z,5.20
2019-03-18T22:45:10.534Z,5.20
2019-03-18T22:47:36.890Z,5.10
2019-03-18T22:50:05.718Z,5.20
2019-03-18T22:52:32.112Z,5.20
2019-03-18T22:54:58.412Z,5.20
2019-03-18T22:57:24.670Z,5.20
2019-03-18T22:59:51.045Z,5.20
2019-03-18T23:02:17.549Z,5.20
2019-03-18T23:04:46.658Z,5.10
2019-03-18T23:07:12.890Z,5.10
2019-03-18T23:09:39.109Z,5.10
2019-03-18T23:12:05.410Z,5.10
2019-03-18T23:14:31.997Z,5.10
2019-03-18T23:17:07.968Z,5.10
2019-03-18T23:19:34.354Z,5.00
2019-03-18T23:22:00.529Z,5.00
2019-03-18T23:24:26.739Z,4.90
2019-03-18T23:26:52.915Z,4.80
2019-03-18T23:29:31.416Z,4.80
2019-03-18T23:31:57.596Z,4.80
2019-03-18T23:34:26.396Z,4.70
2019-03-18T23:36:52.684Z,4.60
2019-03-18T23:39:18.916Z,4.50
2019-03-18T23:41:45.145Z,4.50
2019-03-18T23:44:11.350Z,4.40
2019-03-18T23:46:37.541Z,4.40
2019-03-18T23:49:03.740Z,4.30
2019-03-18T23:51:29.936Z,4.30
2019-03-18T23:54:05.184Z,4.20
2019-03-18T23:56:33.946Z,4.10
2019-03-18T23:59:00.241Z,4.10
